createdAt,value
2023-05-12T00:03:33.355Z,10.50
2023-05-12T00:08:37.200Z,10.40
2023-05-12T00:13:41.796Z,10.30
2023-05-12T00:18:43.761Z,10.30
2023-05-12T00:23:47.925Z,10.30
2023-05-12T00:28:49.795Z,10.40
2023-05-12T00:33:51.645Z,10.40
2023-05-12T00:38:56.406Z,10.40
2023-05-12T00:43:58.355Z,10.40
2023-05-12T00:49:05.216Z,10.40
2023-05-12T00:54:09.972Z,10.40
2023-05-12T00:59:11.878Z,10.50
2023-05-12T01:04:13.920Z,10.60
2023-05-12T01:09:20.738Z,10.60
2023-05-12T01:14:23.445Z,10.60
2023-05-12T01:19:40.836Z,10.60
2023-05-12T01:24:52.969Z,10.60
2023-05-12T01:29:59.752Z,10.50
2023-05-12T01:35:02.125Z,10.50
2023-05-12T01:40:04.525Z,10.50
2023-05-12T01:45:12.044Z,10.50
2023-05-12T01:50:14.337Z,10.50
2023-05-12T01:55:16.403Z,10.50
2023-05-12T02:00:20.034Z,10.50
2023-05-12T02:05:22.335Z,10.50
2023-05-12T02:10:24.203Z,10.40
2023-05-12T02:15:27.720Z,10.40
2023-05-12T02:20:29.938Z,10.40
2023-05-12T02:25:32.106Z,10.40
2023-05-12T02:30:35.411Z,10.40
2023-05-12T02:35:37.328Z,10.40
2023-05-12T02:40:39.181Z,10.40
2023-05-12T02:45:42.714Z,10.50
2023-05-12T02:50:44.749Z,10.50
2023-05-12T02:55:46.667Z,10.50
2023-05-12T03:00:56.882Z,10.50
2023-05-12T03:06:06.416Z,10.50
2023-05-12T03:11:08.238Z,10.50
2023-05-12T03:16:13.658Z,10.50
2023-05-12T03:21:15.723Z,10.50
2023-05-12T03:26:18.515Z,10.50
2023-05-12T03:31:21.686Z,10.40
2023-05-12T03:36:23.930Z,10.40
2023-05-12T03:41:25.925Z,10.40
2023-05-12T03:46:29.166Z,10.40
2023-05-12T03:51:31.237Z,10.50
2023-05-12T03:56:34.743Z,10.50
2023-05-12T04:01:38.159Z,10.50
2023-05-12T04:06:40.160Z,10.50
2023-05-12T04:11:42.267Z,10.50
2023-05-12T04:16:45.484Z,10.50
2023-05-12T04:21:47.482Z,10.50
2023-05-12T04:26:49.553Z,10.50
2023-05-12T04:31:53.303Z,10.50
2023-05-12T04:36:55.826Z,10.60
2023-05-12T04:41:57.860Z,10.70
2023-05-12T04:47:01.290Z,10.70
2023-05-12T04:52:05.113Z,10.80
2023-05-12T04:57:07.427Z,10.90
2023-05-12T05:02:10.884Z,11.00
2023-05-12T05:07:12.959Z,11.10
2023-05-12T05:12:15.036Z,11.20
2023-05-12T05:17:18.708Z,11.40
2023-05-12T05:22:20.541Z,11.70
2023-05-12T05:27:22.363Z,12.00
2023-05-12T05:32:25.982Z,12.00
2023-05-12T05:37:28.368Z,12.00
2023-05-12T05:42:30.625Z,12.20
2023-05-12T05:53:33.213Z,12.30
2023-05-12T05:58:35.881Z,12.60
2023-05-12T06:03:45.280Z,12.70
2023-05-12T06:09:07.856Z,12.70
2023-05-12T06:15:04.230Z,12.50
2023-05-12T06:20:09.670Z,12.50
2023-05-12T06:25:12.048Z,12.50
2023-05-12T06:30:16.086Z,12.40
2023-05-12T06:35:20.298Z,12.60
2023-05-12T06:40:22.903Z,12.90
2023-05-12T06:45:25.808Z,13.20
2023-05-12T06:50:29.489Z,13.30
2023-05-12T06:55:31.751Z,13.50
2023-05-12T07:00:33.912Z,13.90
2023-05-12T07:05:37.794Z,14.30
2023-05-12T07:10:40.277Z,14.60
2023-05-12T07:15:42.695Z,14.70
2023-05-12T07:20:47.174Z,14.90
2023-05-12T07:25:49.409Z,15.20
2023-05-12T07:30:53.327Z,15.50
2023-05-12T07:35:56.716Z,16.20
2023-05-12T07:41:00.164Z,16.70
2023-05-12T07:46:02.634Z,16.70
2023-05-12T07:51:06.220Z,16.40
2023-05-12T07:56:08.546Z,16.80
2023-05-12T08:01:10.423Z,16.40
2023-05-12T08:06:13.892Z,16.60
2023-05-12T08:11:15.947Z,16.30
2023-05-12T08:16:18.010Z,15.70
2023-05-12T08:21:21.592Z,15.80
2023-05-12T08:26:23.518Z,15.90
2023-05-12T08:31:25.370Z,15.80
2023-05-12T08:36:28.841Z,15.70
2023-05-12T08:41:38.466Z,15.70
2023-05-12T08:46:41.012Z,15.60
2023-05-12T08:51:54.495Z,15.70
2023-05-12T09:02:09.486Z,15.60
2023-05-12T09:07:13.590Z,15.90
2023-05-12T09:12:19.478Z,16.10
2023-05-12T09:17:21.662Z,16.80
2023-05-12T09:22:31.380Z,17.40
2023-05-12T09:27:33.549Z,17.90
2023-05-12T09:32:36.782Z,19.20
2023-05-12T09:37:40.985Z,20.30
2023-05-12T09:42:44.690Z,19.10
2023-05-12T09:47:47.152Z,19.70
2023-05-12T09:52:52.709Z,19.40
2023-05-12T09:57:56.474Z,18.80
2023-05-12T10:02:58.946Z,17.20
2023-05-12T10:08:03.170Z,16.50
2023-05-12T10:13:06.067Z,16.50
2023-05-12T10:18:09.017Z,16.70
2023-05-12T10:23:13.717Z,16.70
2023-05-12T10:28:16.468Z,16.30
2023-05-12T10:33:19.266Z,16.90
2023-05-12T10:38:22.857Z,17.40
2023-05-12T10:43:26.088Z,19.00
2023-05-12T10:48:27.905Z,19.50
2023-05-12T10:53:47.647Z,20.10
2023-05-12T10:59:18.674Z,20.10
2023-05-12T11:04:22.508Z,20.50
2023-05-12T11:09:27.240Z,19.80
2023-05-12T11:14:29.627Z,20.00
2023-05-12T11:19:31.736Z,19.00
2023-05-12T11:24:35.293Z,19.00
2023-05-12T11:29:38.451Z,19.10
2023-05-12T11:34:41.228Z,19.00
2023-05-12T11:39:44.812Z,19.10
2023-05-12T11:44:50.921Z,19.10
2023-05-12T11:49:54.838Z,19.00
2023-05-12T11:55:00.404Z,19.20
2023-05-12T12:00:05.033Z,18.50
2023-05-12T12:05:17.741Z,19.00
2023-05-12T12:10:22.010Z,20.00
2023-05-12T12:15:24.306Z,18.90
2023-05-12T12:20:26.436Z,19.60
2023-05-12T12:25:30.138Z,21.40
2023-05-12T12:30:32.675Z,21.10
2023-05-12T12:35:34.573Z,20.40
2023-05-12T12:40:37.750Z,20.20
2023-05-12T12:45:39.929Z,21.40
2023-05-12T12:50:42.200Z,23.40
2023-05-12T12:55:45.934Z,23.60
2023-05-12T13:00:48.012Z,24.10
2023-05-12T13:05:50.280Z,21.70
2023-05-12T13:10:54.916Z,20.40
2023-05-12T13:15:56.998Z,22.50
2023-05-12T13:20:59.340Z,22.50
2023-05-12T13:26:03.031Z,24.60
2023-05-12T13:31:05.100Z,25.80
2023-05-12T13:36:08.101Z,27.80
2023-05-12T13:41:11.444Z,28.40
2023-05-12T13:46:13.745Z,28.30
2023-05-12T13:51:16.411Z,27.70
2023-05-12T13:56:20.188Z,28.00
2023-05-12T14:01:22.234Z,27.00
2023-05-12T14:06:24.695Z,24.40
2023-05-12T14:11:28.161Z,23.10
2023-05-12T14:16:30.969Z,23.40
2023-05-12T14:21:32.999Z,21.70
2023-05-12T14:26:36.310Z,23.20
2023-05-12T14:31:38.434Z,23.40
2023-05-12T14:36:40.905Z,22.70
2023-05-12T14:41:44.308Z,21.40
2023-05-12T14:46:46.555Z,20.70
2023-05-12T14:51:48.728Z,21.40
2023-05-12T14:56:51.888Z,22.60
2023-05-12T15:01:54.047Z,22.30
2023-05-12T15:06:56.347Z,22.90
2023-05-12T15:11:59.884Z,23.00
2023-05-12T15:17:02.278Z,21.80
2023-05-12T15:22:04.604Z,21.50
2023-05-12T15:27:08.642Z,21.10
2023-05-12T15:32:10.710Z,20.40
2023-05-12T15:37:12.946Z,20.20
2023-05-12T15:42:22.242Z,19.70
2023-05-12T15:47:28.730Z,19.40
2023-05-12T15:52:30.787Z,18.90
2023-05-12T15:57:36.001Z,18.40
2023-05-12T16:02:38.290Z,18.10
2023-05-12T16:07:40.525Z,18.00
2023-05-12T16:12:43.920Z,17.90
2023-05-12T16:17:46.449Z,17.60
2023-05-12T16:22:49.230Z,17.50
2023-05-12T16:27:53.308Z,17.60
2023-05-12T16:32:55.304Z,17.50
2023-05-12T16:37:57.469Z,17.20
2023-05-12T16:43:01.487Z,17.20
2023-05-12T16:48:04.094Z,17.40
2023-05-12T16:53:06.702Z,17.40
2023-05-12T16:58:10.336Z,17.30
2023-05-12T17:03:13.231Z,17.30
2023-05-12T17:08:17.182Z,17.50
2023-05-12T17:13:22.982Z,17.50
2023-05-12T17:18:25.884Z,17.10
2023-05-12T17:23:28.800Z,16.80
2023-05-12T17:28:32.983Z,16.60
2023-05-12T17:33:35.887Z,16.60
2023-05-12T17:38:39.350Z,16.30
2023-05-12T17:43:43.618Z,16.20
2023-05-12T17:48:46.701Z,15.90
2023-05-12T17:53:49.453Z,15.70
2023-05-12T17:58:53.568Z,15.60
2023-05-12T18:03:56.191Z,15.40
2023-05-12T18:08:58.764Z,15.40
2023-05-12T18:14:06.520Z,15.30
2023-05-12T18:19:09.532Z,15.30
2023-05-12T18:24:12.934Z,15.20
2023-05-12T18:29:16.921Z,15.20
2023-05-12T18:34:19.498Z,15.00
2023-05-12T18:39:22.092Z,14.80
2023-05-12T18:44:26.266Z,14.70
2023-05-12T18:49:28.704Z,14.50
2023-05-12T18:54:31.785Z,14.30
2023-05-12T18:59:36.234Z,14.30
2023-05-12T19:04:39.266Z,14.00
2023-05-12T19:09:42.643Z,13.90
2023-05-12T19:14:47.038Z,13.80
2023-05-12T19:19:51.260Z,13.80
2023-05-12T19:24:54.860Z,13.60
2023-05-12T19:29:58.918Z,13.50
2023-05-12T19:35:02.256Z,13.40
2023-05-12T19:40:05.415Z,13.20
2023-05-12T19:45:11.250Z,13.00
2023-05-12T19:50:14.985Z,12.90
2023-05-12T19:55:18.544Z,12.80
2023-05-12T20:00:23.706Z,12.60
2023-05-12T20:05:26.420Z,12.50
2023-05-12T20:10:29.917Z,12.40
2023-05-12T20:15:35.937Z,12.30
2023-05-12T20:20:39.424Z,12.30
2023-05-12T20:25:42.262Z,12.20
2023-05-12T20:30:46.783Z,12.20
2023-05-12T20:35:49.603Z,12.10
2023-05-12T20:40:52.750Z,11.90
2023-05-12T20:45:57.370Z,11.90
2023-05-12T20:51:01.398Z,11.90
2023-05-12T20:56:04.295Z,11.90
2023-05-12T21:01:08.172Z,12.00
2023-05-12T21:06:12.293Z,12.10
2023-05-12T21:11:16.210Z,12.10
2023-05-12T21:16:19.832Z,12.10
2023-05-12T21:21:22.338Z,12.00
2023-05-12T21:26:24.400Z,11.80
2023-05-12T21:31:27.536Z,11.70
2023-05-12T21:36:29.377Z,11.70
2023-05-12T21:41:31.659Z,11.80
2023-05-12T21:46:36.169Z,11.70
2023-05-12T21:51:38.037Z,11.70
2023-05-12T21:56:39.893Z,11.80
2023-05-12T22:01:43.185Z,11.80
2023-05-12T22:06:45.269Z,11.70
2023-05-12T22:11:47.509Z,11.70
2023-05-12T22:16:51.050Z,11.60
2023-05-12T22:21:53.050Z,11.60
2023-05-12T22:26:54.975Z,11.40
2023-05-12T22:31:59.027Z,11.40
2023-05-12T22:37:00.787Z,11.40
2023-05-12T22:42:03.383Z,11.40
2023-05-12T22:47:08.479Z,11.40
2023-05-12T22:52:10.649Z,11.40
2023-05-12T22:57:12.803Z,11.50
2023-05-12T23:02:16.508Z,11.50
2023-05-12T23:07:18.795Z,11.50
2023-05-12T23:12:20.707Z,11.60
2023-05-12T23:17:23.848Z,11.50
2023-05-12T23:22:26.230Z,11.50
2023-05-12T23:27:28.276Z,11.40
2023-05-12T23:32:31.828Z,11.50
2023-05-12T23:37:33.828Z,11.50
2023-05-12T23:42:35.584Z,11.40
2023-05-12T23:47:39.118Z,11.40
2023-05-12T23:52:41.079Z,11.40
2023-05-12T23:57:42.845Z,11.30
